createdAt,value
2016-01-22T14:14:28.889Z,1028.43
2016-01-22T14:15:28.865Z,1028.49
2016-01-22T14:16:28.805Z,1028.51
2016-01-22T14:17:28.917Z,1028.52
2016-01-22T14:18:28.751Z,1028.51
2016-01-22T14:19:28.786Z,1028.55
2016-01-22T14:20:28.742Z,1028.55
2016-01-22T14:21:28.699Z,1028.53
2016-01-22T14:22:28.674Z,1028.55
2016-01-22T14:23:28.638Z,1028.52
2016-01-22T14:24:29.172Z,1028.47
2016-01-22T14:25:28.600Z,1028.46
2016-01-22T14:26:28.556Z,1028.45
2016-01-22T14:27:28.560Z,1028.44
2016-01-22T14:28:28.531Z,1028.47
2016-01-22T14:29:28.476Z,1028.45
2016-01-22T14:30:28.511Z,1028.41
2016-01-22T14:31:28.437Z,1028.37
2016-01-22T14:32:28.427Z,1028.33
2016-01-22T14:33:28.433Z,1028.37
2016-01-22T14:34:28.392Z,1028.37
2016-01-22T14:35:28.349Z,1028.35
2016-01-22T14:36:28.337Z,1028.33
2016-01-22T14:37:28.311Z,1028.32
2016-01-22T14:38:28.269Z,1028.36
2016-01-22T14:39:28.274Z,1028.26
2016-01-22T14:40:28.247Z,1028.29
2016-01-22T14:41:28.438Z,1028.25
2016-01-22T14:42:28.209Z,1028.26
2016-01-22T14:43:28.197Z,1028.23
2016-01-22T14:44:28.153Z,1028.24
2016-01-22T14:45:28.110Z,1028.21
2016-01-22T14:46:28.098Z,1028.25
2016-01-22T14:47:28.056Z,1028.25
2016-01-22T14:48:28.062Z,1028.23
2016-01-22T14:49:28.082Z,1028.21
2016-01-22T14:50:27.976Z,1028.22
2016-01-22T14:51:28.028Z,1028.19
2016-01-22T14:52:27.998Z,1028.23
2016-01-22T14:53:27.938Z,1028.23
2016-01-22T14:54:27.926Z,1028.25
2016-01-22T14:55:27.919Z,1028.28
2016-01-22T14:56:27.813Z,1028.31
2016-01-22T14:57:27.866Z,1028.23
2016-01-22T14:58:27.776Z,1028.29
2016-01-22T14:59:27.749Z,1028.3
2016-01-22T15:00:27.738Z,1028.26
2016-01-22T15:01:27.757Z,1028.23
2016-01-22T15:02:27.714Z,1028.2
2016-01-22T15:03:27.673Z,1028.2
2016-01-22T15:04:27.679Z,1028.23
2016-01-22T15:05:27.634Z,1028.18
2016-01-22T15:06:27.607Z,1028.12
2016-01-22T15:07:27.580Z,1028.15
2016-01-22T15:08:27.536Z,1028.12
2016-01-22T15:09:27.540Z,1028.07
2016-01-22T15:10:27.500Z,1028.1
2016-01-22T15:11:27.456Z,1028.11
2016-01-22T15:12:27.525Z,1028.07
2016-01-22T15:13:27.423Z,1028.11
2016-01-22T15:14:27.444Z,1028.13
2016-01-22T15:15:27.389Z,1028.1
2016-01-22T15:16:27.345Z,1028.1
2016-01-22T15:17:27.365Z,1028.08
2016-01-22T15:18:27.336Z,1028.13
2016-01-22T15:19:27.310Z,1028.1
2016-01-22T15:20:27.236Z,1028.07
2016-01-22T15:21:27.274Z,1028.01
2016-01-22T15:22:27.215Z,1028.04
2016-01-22T15:23:27.203Z,1028.01
2016-01-22T15:24:27.160Z,1027.98
2016-01-22T15:25:27.368Z,1028
2016-01-22T15:26:27.106Z,1027.93
2016-01-22T15:27:27.053Z,1027.92
2016-01-22T15:28:27.043Z,1027.88
2016-01-22T15:29:27.002Z,1027.9
2016-01-22T15:30:27.006Z,1027.88
2016-01-22T15:31:26.979Z,1027.85
2016-01-22T15:32:26.997Z,1027.84
2016-01-22T15:33:26.908Z,1027.81
2016-01-22T15:34:26.896Z,1027.81
2016-01-22T15:35:26.852Z,1027.8
2016-01-22T15:36:26.857Z,1027.75
2016-01-22T15:37:26.798Z,1027.76
2016-01-22T15:38:26.801Z,1027.74
2016-01-22T15:39:26.759Z,1027.73
2016-01-22T15:40:26.763Z,1027.7
2016-01-22T15:41:26.736Z,1027.72
2016-01-22T15:42:26.662Z,1027.67
2016-01-22T15:43:27.213Z,1027.63
2016-01-22T15:44:26.639Z,1027.64
2016-01-22T15:45:26.628Z,1027.56
2016-01-22T15:46:26.663Z,1027.59
2016-01-22T15:47:26.576Z,1027.58
2016-01-22T15:48:26.534Z,1027.54
2016-01-22T15:49:26.537Z,1027.52
2016-01-22T15:50:26.494Z,1027.48
2016-01-22T15:51:26.452Z,1027.51
2016-01-22T15:52:26.428Z,1027.44
2016-01-22T15:53:26.401Z,1027.45
2016-01-22T15:54:26.422Z,1027.48
2016-01-22T15:55:26.362Z,1027.44
2016-01-22T15:56:26.351Z,1027.42
2016-01-22T15:57:26.343Z,1027.49
2016-01-22T15:58:26.270Z,1027.46
2016-01-22T15:59:26.274Z,1027.42
2016-01-22T16:00:26.263Z,1027.38
2016-01-22T16:01:26.203Z,1027.4
2016-01-22T16:02:26.223Z,1027.41
2016-01-22T16:03:26.165Z,1027.44
2016-01-22T16:04:26.157Z,1027.44
2016-01-22T16:05:26.129Z,1027.37
2016-01-22T16:06:26.132Z,1027.34
2016-01-22T16:07:26.057Z,1027.31
2016-01-22T16:08:26.469Z,1027.3
2016-01-22T16:09:26.115Z,1027.3
2016-01-22T16:10:26.464Z,1027.31
2016-01-22T16:11:25.982Z,1027.31
2016-01-22T16:12:25.985Z,1027.29
2016-01-22T16:13:25.942Z,1027.26
2016-01-22T16:14:25.901Z,1027.27
2016-01-22T16:15:25.890Z,1027.29
2016-01-22T16:16:25.910Z,1027.31
2016-01-22T16:17:25.869Z,1027.29
2016-01-22T16:18:25.842Z,1027.27
2016-01-22T16:19:25.816Z,1027.34
2016-01-22T16:20:25.741Z,1027.38
2016-01-22T16:21:25.793Z,1027.34
2016-01-22T16:22:25.690Z,1027.38
2016-01-22T16:23:25.693Z,1027.33
2016-01-22T16:24:25.651Z,1027.33
2016-01-22T16:25:25.639Z,1027.25
2016-01-22T16:26:25.612Z,1027.27
2016-01-22T16:27:25.602Z,1027.24
2016-01-22T16:28:25.561Z,1027.22
2016-01-22T16:29:25.879Z,1027.24
2016-01-22T16:30:25.509Z,1027.24
2016-01-22T16:31:25.482Z,1027.23
2016-01-22T16:32:25.472Z,1027.25
2016-01-22T16:33:25.475Z,1027.26
2016-01-22T16:34:25.415Z,1027.28
2016-01-22T16:35:25.450Z,1027.27
2016-01-22T16:36:25.329Z,1027.28
2016-01-22T16:37:25.317Z,1027.26
2016-01-22T16:38:25.354Z,1027.23
2016-01-22T16:39:25.263Z,1027.28
2016-01-22T16:40:25.267Z,1027.22
2016-01-22T16:41:25.210Z,1027.19
2016-01-22T16:42:25.214Z,1027.18
2016-01-22T16:43:25.171Z,1027.24
2016-01-22T16:44:25.190Z,1027.19
2016-01-22T16:45:25.131Z,1027.25
2016-01-22T16:46:25.104Z,1027.23
2016-01-22T16:47:25.075Z,1027.22
2016-01-22T16:48:25.018Z,1027.24
2016-01-22T16:49:25.007Z,1027.24
2016-01-22T16:50:24.996Z,1027.26
2016-01-22T16:51:24.987Z,1027.28
2016-01-22T16:52:24.943Z,1027.29
2016-01-22T16:53:24.919Z,1027.29
2016-01-22T16:54:24.891Z,1027.29
